sensor_id;sensor_type;location;lat;lon;timestamp;P1;durP1;ratioP1;P2;durP2;ratioP2
37655;SDS011;23498;50.958;3.124;2023-08-06T00:02:25;6.68;;;1.35;;
37655;SDS011;23498;50.958;3.124;2023-08-06T00:04:51;4.15;;;0.90;;
37655;SDS011;23498;50.958;3.124;2023-08-06T00:07:18;5.25;;;0.98;;
37655;SDS011;23498;50.958;3.124;2023-08-06T00:09:44;6.22;;;1.42;;
37655;SDS011;23498;50.958;3.124;2023-08-06T00:12:10;6.45;;;1.17;;
37655;SDS011;23498;50.958;3.124;2023-08-06T00:14:35;2.45;;;0.80;;
37655;SDS011;23498;50.958;3.124;2023-08-06T00:17:02;12.13;;;1.30;;
37655;SDS011;23498;50.958;3.124;2023-08-06T00:19:28;5.05;;;1.23;;
37655;SDS011;23498;50.958;3.124;2023-08-06T00:21:54;5.68;;;1.25;;
37655;SDS011;23498;50.958;3.124;2023-08-06T00:24:20;7.15;;;1.00;;
37655;SDS011;23498;50.958;3.124;2023-08-06T00:26:46;6.80;;;1.13;;
37655;SDS011;23498;50.958;3.124;2023-08-06T00:29:12;4.65;;;1.02;;
37655;SDS011;23498;50.958;3.124;2023-08-06T00:31:38;3.28;;;0.90;;
37655;SDS011;23498;50.958;3.124;2023-08-06T00:34:04;3.65;;;1.25;;
37655;SDS011;23498;50.958;3.124;2023-08-06T00:36:30;3.95;;;1.05;;
37655;SDS011;23498;50.958;3.124;2023-08-06T00:38:56;5.63;;;1.73;;
37655;SDS011;23498;50.958;3.124;2023-08-06T00:41:22;4.22;;;1.40;;
37655;SDS011;23498;50.958;3.124;2023-08-06T00:43:48;8.13;;;1.30;;
37655;SDS011;23498;50.958;3.124;2023-08-06T00:46:14;4.70;;;1.20;;
37655;SDS011;23498;50.958;3.124;2023-08-06T00:48:40;4.32;;;1.02;;
37655;SDS011;23498;50.958;3.124;2023-08-06T00:51:08;5.45;;;1.10;;
37655;SDS011;23498;50.958;3.124;2023-08-06T00:53:34;7.38;;;1.40;;
37655;SDS011;23498;50.958;3.124;2023-08-06T00:56:01;3.55;;;1.20;;
37655;SDS011;23498;50.958;3.124;2023-08-06T00:58:27;5.47;;;1.50;;
37655;SDS011;23498;50.958;3.124;2023-08-06T01:00:53;6.32;;;1.30;;
37655;SDS011;23498;50.958;3.124;2023-08-06T01:03:20;4.15;;;1.10;;
37655;SDS011;23498;50.958;3.124;2023-08-06T01:05:47;7.05;;;1.40;;
37655;SDS011;23498;50.958;3.124;2023-08-06T01:11:00;5.07;;;2.22;;
37655;SDS011;23498;50.958;3.124;2023-08-06T01:13:33;5.97;;;2.60;;
37655;SDS011;23498;50.958;3.124;2023-08-06T01:16:03;10.00;;;3.30;;
37655;SDS011;23498;50.958;3.124;2023-08-06T01:18:30;5.32;;;2.65;;
37655;SDS011;23498;50.958;3.124;2023-08-06T01:20:56;6.90;;;4.25;;
37655;SDS011;23498;50.958;3.124;2023-08-06T01:23:22;9.43;;;4.07;;
37655;SDS011;23498;50.958;3.124;2023-08-06T01:25:56;8.80;;;4.55;;
37655;SDS011;23498;50.958;3.124;2023-08-06T01:28:24;7.00;;;4.13;;
37655;SDS011;23498;50.958;3.124;2023-08-06T01:30:53;10.10;;;3.60;;
37655;SDS011;23498;50.958;3.124;2023-08-06T01:33:21;10.85;;;3.50;;
37655;SDS011;23498;50.958;3.124;2023-08-06T01:35:47;8.35;;;3.20;;
37655;SDS011;23498;50.958;3.124;2023-08-06T01:38:15;9.20;;;3.03;;
37655;SDS011;23498;50.958;3.124;2023-08-06T01:40:41;10.40;;;3.55;;
37655;SDS011;23498;50.958;3.124;2023-08-06T01:43:07;9.25;;;3.28;;
37655;SDS011;23498;50.958;3.124;2023-08-06T01:45:33;8.18;;;3.45;;
37655;SDS011;23498;50.958;3.124;2023-08-06T01:47:59;5.97;;;2.92;;
37655;SDS011;23498;50.958;3.124;2023-08-06T01:50:25;12.68;;;3.53;;
37655;SDS011;23498;50.958;3.124;2023-08-06T01:52:51;9.48;;;4.63;;
37655;SDS011;23498;50.958;3.124;2023-08-06T01:55:17;9.23;;;3.80;;
37655;SDS011;23498;50.958;3.124;2023-08-06T01:57:43;9.75;;;3.92;;
37655;SDS011;23498;50.958;3.124;2023-08-06T02:00:10;8.35;;;4.05;;
37655;SDS011;23498;50.958;3.124;2023-08-06T02:02:36;11.00;;;4.28;;
37655;SDS011;23498;50.958;3.124;2023-08-06T02:05:02;7.60;;;4.80;;
37655;SDS011;23498;50.958;3.124;2023-08-06T02:07:29;10.43;;;5.47;;
37655;SDS011;23498;50.958;3.124;2023-08-06T02:09:55;7.53;;;5.35;;
37655;SDS011;23498;50.958;3.124;2023-08-06T02:12:21;10.73;;;4.68;;
37655;SDS011;23498;50.958;3.124;2023-08-06T02:14:47;14.55;;;5.38;;
37655;SDS011;23498;50.958;3.124;2023-08-06T02:17:13;12.07;;;5.30;;
37655;SDS011;23498;50.958;3.124;2023-08-06T02:19:39;10.45;;;4.78;;
37655;SDS011;23498;50.958;3.124;2023-08-06T02:22:05;9.88;;;4.18;;
37655;SDS011;23498;50.958;3.124;2023-08-06T02:24:31;9.82;;;3.80;;
37655;SDS011;23498;50.958;3.124;2023-08-06T02:26:57;13.13;;;4.22;;
37655;SDS011;23498;50.958;3.124;2023-08-06T02:29:23;11.40;;;3.78;;
37655;SDS011;23498;50.958;3.124;2023-08-06T02:31:49;8.23;;;3.97;;
37655;SDS011;23498;50.958;3.124;2023-08-06T02:34:15;14.95;;;3.85;;
37655;SDS011;23498;50.958;3.124;2023-08-06T02:36:41;11.82;;;4.22;;
37655;SDS011;23498;50.958;3.124;2023-08-06T02:39:07;7.65;;;3.28;;
37655;SDS011;23498;50.958;3.124;2023-08-06T02:41:33;9.70;;;4.20;;
37655;SDS011;23498;50.958;3.124;2023-08-06T02:43:59;9.68;;;3.67;;
37655;SDS011;23498;50.958;3.124;2023-08-06T02:46:25;8.88;;;3.28;;
37655;SDS011;23498;50.958;3.124;2023-08-06T02:48:51;8.98;;;3.40;;
37655;SDS011;23498;50.958;3.124;2023-08-06T02:51:17;11.38;;;2.88;;
37655;SDS011;23498;50.958;3.124;2023-08-06T02:53:43;9.77;;;3.70;;
37655;SDS011;23498;50.958;3.124;2023-08-06T02:56:10;7.57;;;2.65;;
37655;SDS011;23498;50.958;3.124;2023-08-06T02:58:36;8.35;;;2.80;;
37655;SDS011;23498;50.958;3.124;2023-08-06T03:01:05;11.52;;;3.70;;
37655;SDS011;23498;50.958;3.124;2023-08-06T03:03:32;9.68;;;3.40;;
37655;SDS011;23498;50.958;3.124;2023-08-06T03:05:58;16.85;;;4.30;;
37655;SDS011;23498;50.958;3.124;2023-08-06T03:08:24;8.20;;;3.20;;
37655;SDS011;23498;50.958;3.124;2023-08-06T03:10:51;10.18;;;3.72;;
37655;SDS011;23498;50.958;3.124;2023-08-06T03:13:17;8.80;;;4.00;;
37655;SDS011;23498;50.958;3.124;2023-08-06T03:15:51;8.23;;;3.25;;
37655;SDS011;23498;50.958;3.124;2023-08-06T03:18:17;10.27;;;3.33;;
37655;SDS011;23498;50.958;3.124;2023-08-06T03:20:44;9.77;;;3.78;;
37655;SDS011;23498;50.958;3.124;2023-08-06T03:23:10;11.20;;;3.42;;
37655;SDS011;23498;50.958;3.124;2023-08-06T03:25:36;10.02;;;3.38;;
37655;SDS011;23498;50.958;3.124;2023-08-06T03:28:02;11.40;;;3.65;;
37655;SDS011;23498;50.958;3.124;2023-08-06T03:30:28;8.70;;;3.28;;
37655;SDS011;23498;50.958;3.124;2023-08-06T03:32:54;10.50;;;3.90;;
37655;SDS011;23498;50.958;3.124;2023-08-06T03:35:20;10.43;;;3.72;;
37655;SDS011;23498;50.958;3.124;2023-08-06T03:37:46;13.57;;;4.38;;
37655;SDS011;23498;50.958;3.124;2023-08-06T03:40:13;12.57;;;4.05;;
37655;SDS011;23498;50.958;3.124;2023-08-06T03:42:39;11.57;;;4.50;;
37655;SDS011;23498;50.958;3.124;2023-08-06T03:45:05;12.95;;;4.15;;
37655;SDS011;23498;50.958;3.124;2023-08-06T03:47:32;15.02;;;4.38;;
37655;SDS011;23498;50.958;3.124;2023-08-06T03:49:58;10.13;;;4.05;;
37655;SDS011;23498;50.958;3.124;2023-08-06T03:52:24;11.65;;;4.35;;
37655;SDS011;23498;50.958;3.124;2023-08-06T03:54:50;8.82;;;3.55;;
37655;SDS011;23498;50.958;3.124;2023-08-06T03:57:16;12.07;;;4.50;;
37655;SDS011;23498;50.958;3.124;2023-08-06T03:59:42;12.20;;;4.35;;
37655;SDS011;23498;50.958;3.124;2023-08-06T04:02:08;11.43;;;4.38;;
37655;SDS011;23498;50.958;3.124;2023-08-06T04:04:34;13.85;;;4.20;;
37655;SDS011;23498;50.958;3.124;2023-08-06T04:07:00;13.68;;;4.90;;
37655;SDS011;23498;50.958;3.124;2023-08-06T04:09:28;12.93;;;4.28;;
37655;SDS011;23498;50.958;3.124;2023-08-06T04:11:54;11.98;;;3.90;;
37655;SDS011;23498;50.958;3.124;2023-08-06T04:14:20;8.85;;;3.97;;
37655;SDS011;23498;50.958;3.124;2023-08-06T04:16:46;13.13;;;4.97;;
37655;SDS011;23498;50.958;3.124;2023-08-06T04:19:12;11.27;;;4.28;;
37655;SDS011;23498;50.958;3.124;2023-08-06T04:21:38;11.15;;;4.25;;
37655;SDS011;23498;50.958;3.124;2023-08-06T04:24:04;14.63;;;5.28;;
37655;SDS011;23498;50.958;3.124;2023-08-06T04:26:30;11.38;;;4.55;;
37655;SDS011;23498;50.958;3.124;2023-08-06T04:28:56;10.40;;;4.13;;
37655;SDS011;23498;50.958;3.124;2023-08-06T04:31:22;6.05;;;3.15;;
37655;SDS011;23498;50.958;3.124;2023-08-06T04:33:48;8.48;;;3.70;;
37655;SDS011;23498;50.958;3.124;2023-08-06T04:36:14;9.20;;;4.00;;
37655;SDS011;23498;50.958;3.124;2023-08-06T04:38:40;9.35;;;3.53;;
37655;SDS011;23498;50.958;3.124;2023-08-06T04:41:10;8.48;;;3.92;;
37655;SDS011;23498;50.958;3.124;2023-08-06T04:43:36;10.38;;;4.00;;
37655;SDS011;23498;50.958;3.124;2023-08-06T04:46:02;8.40;;;3.40;;
37655;SDS011;23498;50.958;3.124;2023-08-06T04:48:28;8.15;;;3.25;;
37655;SDS011;23498;50.958;3.124;2023-08-06T04:50:54;7.35;;;3.05;;
37655;SDS011;23498;50.958;3.124;2023-08-06T04:53:20;11.25;;;2.80;;
37655;SDS011;23498;50.958;3.124;2023-08-06T04:55:47;8.45;;;3.00;;
37655;SDS011;23498;50.958;3.124;2023-08-06T04:58:13;11.30;;;2.58;;
37655;SDS011;23498;50.958;3.124;2023-08-06T05:00:39;10.02;;;2.20;;
37655;SDS011;23498;50.958;3.124;2023-08-06T05:03:05;9.63;;;1.92;;
37655;SDS011;23498;50.958;3.124;2023-08-06T05:05:32;8.00;;;2.03;;
37655;SDS011;23498;50.958;3.124;2023-08-06T05:07:58;5.90;;;2.03;;
37655;SDS011;23498;50.958;3.124;2023-08-06T05:10:25;6.78;;;1.70;;
37655;SDS011;23498;50.958;3.124;2023-08-06T05:12:51;7.55;;;1.77;;
37655;SDS011;23498;50.958;3.124;2023-08-06T05:15:17;7.95;;;1.77;;
37655;SDS011;23498;50.958;3.124;2023-08-06T05:17:43;6.80;;;1.50;;
37655;SDS011;23498;50.958;3.124;2023-08-06T05:20:09;6.70;;;1.85;;
37655;SDS011;23498;50.958;3.124;2023-08-06T05:22:35;7.40;;;1.30;;
37655;SDS011;23498;50.958;3.124;2023-08-06T05:25:01;7.57;;;1.38;;
37655;SDS011;23498;50.958;3.124;2023-08-06T05:27:27;5.03;;;0.95;;
37655;SDS011;23498;50.958;3.124;2023-08-06T05:29:56;6.82;;;1.30;;
37655;SDS011;23498;50.958;3.124;2023-08-06T05:32:22;4.50;;;1.48;;
37655;SDS011;23498;50.958;3.124;2023-08-06T05:34:48;7.70;;;1.38;;
37655;SDS011;23498;50.958;3.124;2023-08-06T05:37:14;5.40;;;1.38;;
37655;SDS011;23498;50.958;3.124;2023-08-06T05:39:40;5.07;;;1.50;;
37655;SDS011;23498;50.958;3.124;2023-08-06T05:42:06;8.77;;;2.20;;
37655;SDS011;23498;50.958;3.124;2023-08-06T05:44:32;13.02;;;2.33;;
37655;SDS011;23498;50.958;3.124;2023-08-06T05:46:58;7.55;;;2.60;;
37655;SDS011;23498;50.958;3.124;2023-08-06T05:49:24;6.43;;;1.80;;
37655;SDS011;23498;50.958;3.124;2023-08-06T05:51:51;6.68;;;2.20;;
37655;SDS011;23498;50.958;3.124;2023-08-06T05:54:18;6.05;;;2.65;;
37655;SDS011;23498;50.958;3.124;2023-08-06T05:56:44;6.18;;;2.20;;
37655;SDS011;23498;50.958;3.124;2023-08-06T05:59:10;9.43;;;2.83;;
37655;SDS011;23498;50.958;3.124;2023-08-06T06:01:36;8.60;;;2.55;;
37655;SDS011;23498;50.958;3.124;2023-08-06T06:04:02;5.55;;;2.55;;
37655;SDS011;23498;50.958;3.124;2023-08-06T06:06:29;10.73;;;3.28;;
37655;SDS011;23498;50.958;3.124;2023-08-06T06:08:55;6.75;;;2.40;;
37655;SDS011;23498;50.958;3.124;2023-08-06T06:11:21;5.72;;;2.60;;
37655;SDS011;23498;50.958;3.124;2023-08-06T06:13:48;9.75;;;2.45;;
37655;SDS011;23498;50.958;3.124;2023-08-06T06:16:15;8.85;;;2.63;;
37655;SDS011;23498;50.958;3.124;2023-08-06T06:18:41;8.35;;;2.50;;
37655;SDS011;23498;50.958;3.124;2023-08-06T06:21:07;7.80;;;2.60;;
37655;SDS011;23498;50.958;3.124;2023-08-06T06:23:33;10.40;;;2.80;;
37655;SDS011;23498;50.958;3.124;2023-08-06T06:25:59;6.20;;;2.25;;
37655;SDS011;23498;50.958;3.124;2023-08-06T06:28:25;9.55;;;2.63;;
37655;SDS011;23498;50.958;3.124;2023-08-06T06:30:51;5.20;;;2.58;;
37655;SDS011;23498;50.958;3.124;2023-08-06T06:33:17;7.22;;;2.47;;
37655;SDS011;23498;50.958;3.124;2023-08-06T06:35:43;9.43;;;2.58;;
37655;SDS011;23498;50.958;3.124;2023-08-06T06:38:09;6.95;;;1.67;;
37655;SDS011;23498;50.958;3.124;2023-08-06T06:40:35;6.57;;;2.60;;
37655;SDS011;23498;50.958;3.124;2023-08-06T06:43:01;6.30;;;2.00;;
37655;SDS011;23498;50.958;3.124;2023-08-06T06:45:27;7.38;;;2.75;;
37655;SDS011;23498;50.958;3.124;2023-08-06T06:47:53;12.30;;;2.95;;
37655;SDS011;23498;50.958;3.124;2023-08-06T06:50:19;6.90;;;2.55;;
37655;SDS011;23498;50.958;3.124;2023-08-06T06:52:45;7.47;;;2.58;;
37655;SDS011;23498;50.958;3.124;2023-08-06T06:55:11;7.25;;;1.92;;
37655;SDS011;23498;50.958;3.124;2023-08-06T06:57:37;8.75;;;2.53;;
37655;SDS011;23498;50.958;3.124;2023-08-06T07:00:03;9.73;;;2.08;;
37655;SDS011;23498;50.958;3.124;2023-08-06T07:02:29;6.07;;;2.17;;
37655;SDS011;23498;50.958;3.124;2023-08-06T07:04:55;4.90;;;1.70;;
37655;SDS011;23498;50.958;3.124;2023-08-06T07:07:21;5.97;;;1.90;;
37655;SDS011;23498;50.958;3.124;2023-08-06T07:09:47;9.43;;;2.08;;
37655;SDS011;23498;50.958;3.124;2023-08-06T07:12:13;6.53;;;2.00;;
37655;SDS011;23498;50.958;3.124;2023-08-06T07:14:39;7.78;;;1.60;;
37655;SDS011;23498;50.958;3.124;2023-08-06T07:17:05;5.32;;;1.23;;
37655;SDS011;23498;50.958;3.124;2023-08-06T07:19:31;10.35;;;2.03;;
37655;SDS011;23498;50.958;3.124;2023-08-06T07:21:57;7.53;;;1.98;;
37655;SDS011;23498;50.958;3.124;2023-08-06T07:24:23;6.20;;;1.40;;
37655;SDS011;23498;50.958;3.124;2023-08-06T07:26:50;5.70;;;1.60;;
37655;SDS011;23498;50.958;3.124;2023-08-06T07:29:17;6.32;;;1.52;;
37655;SDS011;23498;50.958;3.124;2023-08-06T07:31:46;6.53;;;2.03;;
37655;SDS011;23498;50.958;3.124;2023-08-06T07:34:12;7.78;;;1.80;;
37655;SDS011;23498;50.958;3.124;2023-08-06T07:36:38;7.10;;;1.73;;
37655;SDS011;23498;50.958;3.124;2023-08-06T07:39:04;5.18;;;1.73;;
37655;SDS011;23498;50.958;3.124;2023-08-06T07:41:31;5.57;;;1.58;;
37655;SDS011;23498;50.958;3.124;2023-08-06T07:43:57;3.90;;;1.45;;
37655;SDS011;23498;50.958;3.124;2023-08-06T07:46:23;9.52;;;2.15;;
37655;SDS011;23498;50.958;3.124;2023-08-06T07:48:49;11.88;;;2.08;;
37655;SDS011;23498;50.958;3.124;2023-08-06T07:51:15;6.97;;;1.73;;
37655;SDS011;23498;50.958;3.124;2023-08-06T07:53:41;7.78;;;1.58;;
37655;SDS011;23498;50.958;3.124;2023-08-06T07:56:07;5.90;;;1.60;;
37655;SDS011;23498;50.958;3.124;2023-08-06T07:58:33;8.38;;;1.90;;
37655;SDS011;23498;50.958;3.124;2023-08-06T08:00:59;7.10;;;1.80;;
37655;SDS011;23498;50.958;3.124;2023-08-06T08:03:25;7.78;;;1.77;;
37655;SDS011;23498;50.958;3.124;2023-08-06T08:05:53;7.57;;;1.75;;
37655;SDS011;23498;50.958;3.124;2023-08-06T08:08:22;6.15;;;2.00;;
37655;SDS011;23498;50.958;3.124;2023-08-06T08:10:48;7.25;;;1.88;;
37655;SDS011;23498;50.958;3.124;2023-08-06T08:13:14;5.47;;;1.58;;
37655;SDS011;23498;50.958;3.124;2023-08-06T08:15:40;5.13;;;1.42;;
37655;SDS011;23498;50.958;3.124;2023-08-06T08:18:07;8.18;;;1.75;;
37655;SDS011;23498;50.958;3.124;2023-08-06T08:20:33;7.18;;;2.05;;
37655;SDS011;23498;50.958;3.124;2023-08-06T08:23:00;4.97;;;1.45;;
37655;SDS011;23498;50.958;3.124;2023-08-06T08:25:27;8.82;;;1.60;;
37655;SDS011;23498;50.958;3.124;2023-08-06T08:27:53;5.25;;;1.63;;
37655;SDS011;23498;50.958;3.124;2023-08-06T08:30:19;5.70;;;1.48;;
37655;SDS011;23498;50.958;3.124;2023-08-06T08:32:45;5.13;;;1.40;;
37655;SDS011;23498;50.958;3.124;2023-08-06T08:35:12;8.63;;;1.50;;
37655;SDS011;23498;50.958;3.124;2023-08-06T08:37:38;6.65;;;1.50;;
37655;SDS011;23498;50.958;3.124;2023-08-06T08:40:05;8.35;;;1.60;;
37655;SDS011;23498;50.958;3.124;2023-08-06T08:42:31;7.15;;;1.83;;
37655;SDS011;23498;50.958;3.124;2023-08-06T08:44:57;8.45;;;2.10;;
37655;SDS011;23498;50.958;3.124;2023-08-06T08:47:24;7.72;;;1.90;;
37655;SDS011;23498;50.958;3.124;2023-08-06T08:49:52;7.47;;;1.77;;
37655;SDS011;23498;50.958;3.124;2023-08-06T08:52:22;10.98;;;1.83;;
37655;SDS011;23498;50.958;3.124;2023-08-06T08:54:49;5.53;;;1.70;;
37655;SDS011;23498;50.958;3.124;2023-08-06T08:57:17;8.77;;;1.88;;
37655;SDS011;23498;50.958;3.124;2023-08-06T08:59:43;6.18;;;1.70;;
37655;SDS011;23498;50.958;3.124;2023-08-06T09:02:13;7.07;;;1.60;;
37655;SDS011;23498;50.958;3.124;2023-08-06T09:04:40;7.07;;;1.63;;
37655;SDS011;23498;50.958;3.124;2023-08-06T09:07:07;3.95;;;1.65;;
37655;SDS011;23498;50.958;3.124;2023-08-06T09:09:34;7.10;;;1.75;;
37655;SDS011;23498;50.958;3.124;2023-08-06T09:12:11;9.73;;;2.17;;
37655;SDS011;23498;50.958;3.124;2023-08-06T09:14:37;5.40;;;1.60;;
37655;SDS011;23498;50.958;3.124;2023-08-06T09:17:03;7.57;;;1.90;;
37655;SDS011;23498;50.958;3.124;2023-08-06T09:19:31;7.50;;;2.13;;
37655;SDS011;23498;50.958;3.124;2023-08-06T09:21:57;6.35;;;1.83;;
37655;SDS011;23498;50.958;3.124;2023-08-06T09:24:23;5.55;;;1.83;;
37655;SDS011;23498;50.958;3.124;2023-08-06T09:26:49;8.77;;;1.60;;
37655;SDS011;23498;50.958;3.124;2023-08-06T09:29:15;2.60;;;0.95;;
37655;SDS011;23498;50.958;3.124;2023-08-06T09:31:42;5.65;;;1.80;;
37655;SDS011;23498;50.958;3.124;2023-08-06T09:34:12;7.00;;;1.80;;
37655;SDS011;23498;50.958;3.124;2023-08-06T09:36:42;8.15;;;1.67;;
37655;SDS011;23498;50.958;3.124;2023-08-06T09:39:14;9.13;;;1.70;;
37655;SDS011;23498;50.958;3.124;2023-08-06T09:41:40;4.65;;;1.60;;
37655;SDS011;23498;50.958;3.124;2023-08-06T09:44:14;3.00;;;1.35;;
37655;SDS011;23498;50.958;3.124;2023-08-06T09:46:41;7.13;;;1.90;;
37655;SDS011;23498;50.958;3.124;2023-08-06T09:49:07;4.72;;;1.50;;
37655;SDS011;23498;50.958;3.124;2023-08-06T09:51:35;5.93;;;1.27;;
37655;SDS011;23498;50.958;3.124;2023-08-06T09:54:04;10.40;;;1.75;;
37655;SDS011;23498;50.958;3.124;2023-08-06T09:56:31;6.03;;;1.90;;
37655;SDS011;23498;50.958;3.124;2023-08-06T09:59:02;4.22;;;1.50;;
37655;SDS011;23498;50.958;3.124;2023-08-06T10:01:31;4.72;;;1.63;;
37655;SDS011;23498;50.958;3.124;2023-08-06T10:03:58;8.05;;;2.08;;
37655;SDS011;23498;50.958;3.124;2023-08-06T10:06:25;5.22;;;1.58;;
37655;SDS011;23498;50.958;3.124;2023-08-06T10:08:52;4.35;;;1.80;;
37655;SDS011;23498;50.958;3.124;2023-08-06T10:11:18;4.70;;;2.00;;
37655;SDS011;23498;50.958;3.124;2023-08-06T10:13:45;6.93;;;2.28;;
37655;SDS011;23498;50.958;3.124;2023-08-06T10:16:12;5.72;;;1.98;;
37655;SDS011;23498;50.958;3.124;2023-08-06T10:18:38;6.00;;;2.00;;
37655;SDS011;23498;50.958;3.124;2023-08-06T10:21:07;6.55;;;1.95;;
37655;SDS011;23498;50.958;3.124;2023-08-06T10:23:33;4.97;;;1.70;;
37655;SDS011;23498;50.958;3.124;2023-08-06T10:26:00;9.05;;;2.03;;
37655;SDS011;23498;50.958;3.124;2023-08-06T10:28:39;5.00;;;1.90;;
37655;SDS011;23498;50.958;3.124;2023-08-06T10:31:05;7.05;;;1.73;;
37655;SDS011;23498;50.958;3.124;2023-08-06T10:33:40;3.15;;;1.30;;
37655;SDS011;23498;50.958;3.124;2023-08-06T10:36:08;4.85;;;1.90;;
37655;SDS011;23498;50.958;3.124;2023-08-06T10:38:34;6.95;;;1.92;;
37655;SDS011;23498;50.958;3.124;2023-08-06T10:41:02;8.32;;;2.45;;
37655;SDS011;23498;50.958;3.124;2023-08-06T10:43:29;7.05;;;2.85;;
37655;SDS011;23498;50.958;3.124;2023-08-06T10:45:57;5.70;;;2.17;;
37655;SDS011;23498;50.958;3.124;2023-08-06T10:48:45;6.57;;;1.80;;
37655;SDS011;23498;50.958;3.124;2023-08-06T10:51:10;7.30;;;1.90;;
37655;SDS011;23498;50.958;3.124;2023-08-06T10:53:36;5.05;;;1.63;;
37655;SDS011;23498;50.958;3.124;2023-08-06T10:56:12;5.78;;;1.60;;
37655;SDS011;23498;50.958;3.124;2023-08-06T10:58:39;10.20;;;2.13;;
37655;SDS011;23498;50.958;3.124;2023-08-06T11:01:05;6.85;;;2.00;;
37655;SDS011;23498;50.958;3.124;2023-08-06T11:03:31;8.48;;;1.90;;
37655;SDS011;23498;50.958;3.124;2023-08-06T11:05:59;6.32;;;2.15;;
37655;SDS011;23498;50.958;3.124;2023-08-06T11:08:26;6.32;;;2.22;;
37655;SDS011;23498;50.958;3.124;2023-08-06T11:10:52;5.53;;;1.95;;
37655;SDS011;23498;50.958;3.124;2023-08-06T11:13:18;7.95;;;2.33;;
37655;SDS011;23498;50.958;3.124;2023-08-06T11:15:45;8.20;;;2.13;;
37655;SDS011;23498;50.958;3.124;2023-08-06T11:18:11;7.70;;;2.08;;
37655;SDS011;23498;50.958;3.124;2023-08-06T11:20:37;5.68;;;1.90;;
37655;SDS011;23498;50.958;3.124;2023-08-06T11:23:04;4.68;;;2.08;;
37655;SDS011;23498;50.958;3.124;2023-08-06T11:25:30;6.22;;;2.00;;
37655;SDS011;23498;50.958;3.124;2023-08-06T11:27:56;7.00;;;1.80;;
37655;SDS011;23498;50.958;3.124;2023-08-06T11:30:22;7.53;;;2.10;;
37655;SDS011;23498;50.958;3.124;2023-08-06T11:32:48;7.30;;;2.03;;
37655;SDS011;23498;50.958;3.124;2023-08-06T11:35:15;6.47;;;1.95;;
37655;SDS011;23498;50.958;3.124;2023-08-06T11:37:44;8.43;;;2.10;;
37655;SDS011;23498;50.958;3.124;2023-08-06T11:40:11;5.57;;;1.75;;
37655;SDS011;23498;50.958;3.124;2023-08-06T11:42:37;6.38;;;1.98;;
37655;SDS011;23498;50.958;3.124;2023-08-06T11:45:03;5.20;;;1.70;;
37655;SDS011;23498;50.958;3.124;2023-08-06T11:47:30;5.30;;;1.55;;
37655;SDS011;23498;50.958;3.124;2023-08-06T11:49:56;4.97;;;1.20;;
37655;SDS011;23498;50.958;3.124;2023-08-06T11:52:23;5.88;;;1.40;;
37655;SDS011;23498;50.958;3.124;2023-08-06T11:55:00;5.20;;;1.55;;
37655;SDS011;23498;50.958;3.124;2023-08-06T11:57:29;5.10;;;1.45;;
37655;SDS011;23498;50.958;3.124;2023-08-06T11:59:58;6.88;;;1.95;;
37655;SDS011;23498;50.958;3.124;2023-08-06T12:02:24;8.63;;;1.80;;
37655;SDS011;23498;50.958;3.124;2023-08-06T12:04:59;5.63;;;1.33;;
37655;SDS011;23498;50.958;3.124;2023-08-06T12:07:32;4.82;;;1.65;;
37655;SDS011;23498;50.958;3.124;2023-08-06T12:09:58;8.38;;;2.15;;
37655;SDS011;23498;50.958;3.124;2023-08-06T12:12:24;7.70;;;1.85;;
37655;SDS011;23498;50.958;3.124;2023-08-06T12:14:50;9.07;;;2.35;;
37655;SDS011;23498;50.958;3.124;2023-08-06T12:17:16;7.93;;;2.30;;
37655;SDS011;23498;50.958;3.124;2023-08-06T12:19:44;8.20;;;2.47;;
37655;SDS011;23498;50.958;3.124;2023-08-06T12:22:11;6.45;;;1.73;;
37655;SDS011;23498;50.958;3.124;2023-08-06T12:24:38;8.95;;;1.90;;
37655;SDS011;23498;50.958;3.124;2023-08-06T12:27:04;6.82;;;1.75;;
37655;SDS011;23498;50.958;3.124;2023-08-06T12:29:30;3.92;;;1.40;;
37655;SDS011;23498;50.958;3.124;2023-08-06T12:31:56;5.53;;;1.45;;
37655;SDS011;23498;50.958;3.124;2023-08-06T12:34:22;4.18;;;1.50;;
37655;SDS011;23498;50.958;3.124;2023-08-06T12:36:49;7.75;;;1.85;;
37655;SDS011;23498;50.958;3.124;2023-08-06T12:39:15;5.45;;;1.40;;
37655;SDS011;23498;50.958;3.124;2023-08-06T12:41:41;4.65;;;1.38;;
37655;SDS011;23498;50.958;3.124;2023-08-06T12:44:08;4.70;;;1.90;;
37655;SDS011;23498;50.958;3.124;2023-08-06T12:46:34;4.93;;;1.90;;
37655;SDS011;23498;50.958;3.124;2023-08-06T12:49:00;7.80;;;1.70;;
37655;SDS011;23498;50.958;3.124;2023-08-06T12:51:26;6.40;;;1.80;;
37655;SDS011;23498;50.958;3.124;2023-08-06T12:53:52;3.80;;;1.50;;
37655;SDS011;23498;50.958;3.124;2023-08-06T12:56:18;6.15;;;1.42;;
37655;SDS011;23498;50.958;3.124;2023-08-06T12:58:44;5.57;;;1.75;;
37655;SDS011;23498;50.958;3.124;2023-08-06T13:01:10;6.28;;;1.60;;
37655;SDS011;23498;50.958;3.124;2023-08-06T13:03:36;7.18;;;1.73;;
37655;SDS011;23498;50.958;3.124;2023-08-06T13:06:02;5.30;;;1.60;;
37655;SDS011;23498;50.958;3.124;2023-08-06T13:08:28;6.50;;;1.42;;
37655;SDS011;23498;50.958;3.124;2023-08-06T13:10:54;4.65;;;1.70;;
37655;SDS011;23498;50.958;3.124;2023-08-06T13:13:21;5.03;;;1.80;;
37655;SDS011;23498;50.958;3.124;2023-08-06T13:15:47;6.43;;;1.95;;
37655;SDS011;23498;50.958;3.124;2023-08-06T13:18:13;7.85;;;1.73;;
37655;SDS011;23498;50.958;3.124;2023-08-06T13:20:39;6.78;;;1.98;;
37655;SDS011;23498;50.958;3.124;2023-08-06T13:23:05;6.32;;;2.05;;
37655;SDS011;23498;50.958;3.124;2023-08-06T13:25:31;4.82;;;1.33;;
37655;SDS011;23498;50.958;3.124;2023-08-06T13:28:01;5.30;;;1.80;;
37655;SDS011;23498;50.958;3.124;2023-08-06T13:30:28;7.90;;;1.90;;
37655;SDS011;23498;50.958;3.124;2023-08-06T13:32:54;4.90;;;1.00;;
37655;SDS011;23498;50.958;3.124;2023-08-06T13:35:21;5.55;;;1.67;;
37655;SDS011;23498;50.958;3.124;2023-08-06T13:37:47;3.08;;;1.20;;
37655;SDS011;23498;50.958;3.124;2023-08-06T13:40:14;5.65;;;1.73;;
37655;SDS011;23498;50.958;3.124;2023-08-06T13:42:40;7.43;;;2.00;;
37655;SDS011;23498;50.958;3.124;2023-08-06T13:45:06;4.45;;;1.42;;
37655;SDS011;23498;50.958;3.124;2023-08-06T13:47:32;3.58;;;1.20;;
37655;SDS011;23498;50.958;3.124;2023-08-06T13:49:59;4.38;;;1.10;;
37655;SDS011;23498;50.958;3.124;2023-08-06T13:52:25;5.13;;;1.38;;
37655;SDS011;23498;50.958;3.124;2023-08-06T13:54:52;4.88;;;1.08;;
37655;SDS011;23498;50.958;3.124;2023-08-06T13:57:18;6.00;;;1.33;;
37655;SDS011;23498;50.958;3.124;2023-08-06T13:59:44;4.40;;;1.33;;
37655;SDS011;23498;50.958;3.124;2023-08-06T14:02:10;5.40;;;1.48;;
37655;SDS011;23498;50.958;3.124;2023-08-06T14:04:36;1.58;;;0.55;;
37655;SDS011;23498;50.958;3.124;2023-08-06T14:07:02;4.80;;;1.35;;
37655;SDS011;23498;50.958;3.124;2023-08-06T14:09:28;4.07;;;1.30;;
37655;SDS011;23498;50.958;3.124;2023-08-06T14:11:55;2.85;;;1.00;;
37655;SDS011;23498;50.958;3.124;2023-08-06T14:14:21;2.40;;;0.98;;
37655;SDS011;23498;50.958;3.124;2023-08-06T14:16:51;5.93;;;1.70;;
37655;SDS011;23498;50.958;3.124;2023-08-06T14:19:17;2.55;;;1.00;;
37655;SDS011;23498;50.958;3.124;2023-08-06T14:21:43;1.50;;;0.68;;
37655;SDS011;23498;50.958;3.124;2023-08-06T14:24:09;3.90;;;1.25;;
37655;SDS011;23498;50.958;3.124;2023-08-06T14:26:35;3.58;;;1.17;;
37655;SDS011;23498;50.958;3.124;2023-08-06T14:29:02;4.10;;;1.08;;
37655;SDS011;23498;50.958;3.124;2023-08-06T14:31:28;6.10;;;1.20;;
37655;SDS011;23498;50.958;3.124;2023-08-06T14:33:54;4.13;;;1.45;;
37655;SDS011;23498;50.958;3.124;2023-08-06T14:36:20;6.13;;;1.30;;
37655;SDS011;23498;50.958;3.124;2023-08-06T14:38:46;3.00;;;1.15;;
37655;SDS011;23498;50.958;3.124;2023-08-06T14:41:12;5.55;;;1.27;;
37655;SDS011;23498;50.958;3.124;2023-08-06T14:43:38;4.55;;;1.23;;
37655;SDS011;23498;50.958;3.124;2023-08-06T14:46:05;3.58;;;1.30;;